Portada
METAR-TAF:

METAR-TAF

Aeropuertos :

Aeropuerto Internacional de Baréin

Baréin, Bahréin

latitud: 26-16N, longitud: 050-39E, altitud: 2 m

Observación

El informe se hizo hace 29 minutos, a las 01:30 UTC
Viento 7 kt del oeste
Temperatura 31°C
Humedad 59%
Presión 1004 hPa
Visibilidad 10 km o más
sin nubes por debajo de 1500 m y sin presencia de cumulonimbus.

METAR: OBBI 280130Z 28007KT CAVOK 31/22 Q1004 NOSIG

Hora: 04:59 (01:59 UTC)

Pronóstico

El informe se hizo hace 2 horas y 59 minutos, a las 23:00 UTC
Pronóstico válido del 28 a las 00 UTC al 29 a las 06 UTC
Viento 12 kt del oeste-noroeste
Visibilidad 10 km o más
sin nubes por debajo de 1500 m y sin presencia de cumulonimbus.
Evolucionando progresivamente
del 28 a las 18 UTC al 28 a las 20 UTC
Viento 5 kt del oeste

TAF: OBBI 272300Z 2800/2906 30012KT CAVOK BECMG 2818/2820 28005KT

Observaciones y pronósticos meteorológicos de más de 4000 aeropuertos (mensajes METAR y TAF).

Los puntos amarillos y rojos representan las estaciones disponibles.

Ponga el ratón en el punto deseado para ver el nombre de la estación.

Haga clic para ver las observaciones y los pronósticos meteorológicos.

Para cambiar el mapa : haga clic en los botones verdes con una cruz de color negro para hacer un zoom, en el botón verde con un guión para alejar o en las flechas verdes para mapas adyacentes.


METAR-TAF: